Augusta, Illinois
Current Conditions -  °F | °C
As of 4:37 AM on Friday 31 Oct 2014 (Local Time) from KUIN Reporting Station
Overcast Overcast  
Wind Chill: 39°   Ceiling: 2800
Heat Index: 47°   Visibility: 10mi
Dew Point: 37°   Wind: 21mph
Humidity: 68%   Direction: 350°N
Pressure: 30.17"   Gusts: NA
Location:  40.23°N, 90.95°W
Report Text: KUIN 310937Z AUTO 35018KT 10SM OVC028 08/03 A3017 RMK AO2 PK WND 33028/0922 T00830028
Loading
Personal Weather Stations






























Interactive Weather Map
Tropical Storm Tracking
New forecast layout! Learn more

10-Day Weather Forecast

Advertisements
Track Severe Weather on mobile